createdAt,value
2022-09-07T00:00:03.229Z,91.75
2022-09-07T00:01:03.217Z,91.96
2022-09-07T00:02:02.125Z,91.75
2022-09-07T00:03:02.439Z,92.46
2022-09-07T00:04:02.766Z,92.05
2022-09-07T00:05:02.532Z,92.35
2022-09-07T00:06:02.433Z,92.15
2022-09-07T00:07:02.225Z,92.15
2022-09-07T00:08:02.817Z,92.15
2022-09-07T00:09:02.329Z,92.25
2022-09-07T00:10:02.775Z,92.80
2022-09-07T00:11:02.664Z,92.40
2022-09-07T00:12:02.937Z,92.50
2022-09-07T00:13:02.761Z,92.50
2022-09-07T00:14:02.595Z,92.20
2022-09-07T00:15:03.093Z,92.15
2022-09-07T00:16:02.696Z,92.05
2022-09-07T00:17:02.839Z,92.20
2022-09-07T00:18:02.585Z,92.70
2022-09-07T00:19:03.125Z,92.40
2022-09-07T00:20:02.784Z,91.85
2022-09-07T00:21:02.601Z,91.96
2022-09-07T00:22:02.088Z,91.85
2022-09-07T00:23:02.404Z,91.65
2022-09-07T00:24:02.167Z,91.25
2022-09-07T00:25:02.144Z,91.35
2022-09-07T00:26:02.712Z,91.85
2022-09-07T00:27:02.237Z,90.61
2022-09-07T00:28:02.797Z,91.01
2022-09-07T00:29:02.672Z,90.41
2022-09-07T00:30:02.458Z,89.20
2022-09-07T00:31:02.767Z,88.60
2022-09-07T00:32:02.625Z,91.11
2022-09-07T00:33:03.471Z,90.81
2022-09-07T00:34:02.962Z,90.91
2022-09-07T00:35:02.790Z,91.16
2022-09-07T00:36:03.115Z,91.36
2022-09-07T00:37:02.960Z,91.81
2022-09-07T00:38:03.446Z,92.21
2022-09-07T00:39:02.933Z,91.61
2022-09-07T00:40:03.473Z,92.21
2022-09-07T00:41:03.030Z,92.25
2022-09-07T00:42:02.708Z,91.75
2022-09-07T00:43:02.642Z,92.61
2022-09-07T00:44:02.530Z,91.51
2022-09-07T00:45:03.132Z,92.21
2022-09-07T00:46:03.079Z,91.61
2022-09-07T00:47:02.760Z,91.91
2022-09-07T00:48:03.190Z,91.91
2022-09-07T00:49:02.987Z,91.96
2022-09-07T00:50:03.175Z,91.85
2022-09-07T00:51:02.982Z,91.45
2022-09-07T00:52:02.884Z,91.96
2022-09-07T00:53:03.337Z,91.65
2022-09-07T00:54:03.410Z,91.35
2022-09-07T00:55:03.074Z,91.65
2022-09-07T00:56:02.957Z,92.15
2022-09-07T00:57:02.627Z,91.25
2022-09-07T00:58:02.376Z,90.95
2022-09-07T00:59:02.459Z,90.65
2022-09-07T01:00:03.015Z,90.81
2022-09-07T01:01:02.628Z,91.11
2022-09-07T01:02:02.113Z,91.45
2022-09-07T01:03:02.262Z,91.45
2022-09-07T01:04:02.546Z,91.45
2022-09-07T01:05:04.482Z,92.05
2022-09-07T01:06:02.037Z,92.50
2022-09-07T01:07:02.328Z,91.69
2022-09-07T01:08:02.844Z,92.30
2022-09-07T01:09:02.958Z,92.40
2022-09-07T01:10:02.494Z,93.10
2022-09-07T01:11:02.975Z,93.30
2022-09-07T01:12:02.410Z,92.20
2022-09-07T01:13:02.234Z,92.40
2022-09-07T01:14:02.109Z,91.89
2022-09-07T01:15:02.657Z,90.75
2022-09-07T01:16:02.206Z,92.50
2022-09-07T01:17:02.893Z,91.75
2022-09-07T01:18:03.051Z,90.75
2022-09-07T01:19:02.611Z,91.65
2022-09-07T01:20:02.581Z,91.15
2022-09-07T01:21:02.991Z,92.46
2022-09-07T01:22:02.627Z,91.55
2022-09-07T01:23:02.365Z,91.85
2022-09-07T01:24:02.284Z,92.55
2022-09-07T01:25:02.231Z,92.10
2022-09-07T01:26:02.880Z,91.60
2022-09-07T01:27:03.233Z,90.45
2022-09-07T01:28:03.068Z,90.35
2022-09-07T01:29:02.976Z,90.05
2022-09-07T01:30:02.885Z,88.95
2022-09-07T01:31:03.291Z,90.65
2022-09-07T01:32:02.934Z,91.85
2022-09-07T01:33:02.874Z,90.95
2022-09-07T01:34:03.196Z,91.05
2022-09-07T01:35:02.669Z,90.15
2022-09-07T01:36:03.202Z,89.75
2022-09-07T01:37:02.594Z,88.64
2022-09-07T01:38:02.411Z,89.11
2022-09-07T01:39:02.592Z,90.25
2022-09-07T01:40:02.729Z,90.45
2022-09-07T01:41:02.455Z,89.45
2022-09-07T01:42:03.012Z,90.35
2022-09-07T01:43:02.825Z,90.05
2022-09-07T01:44:02.657Z,90.05
2022-09-07T01:45:02.814Z,90.25
2022-09-07T01:46:02.802Z,91.05
2022-09-07T01:47:03.268Z,90.95
2022-09-07T01:48:03.176Z,91.85
2022-09-07T01:49:03.328Z,90.85
2022-09-07T01:50:02.965Z,90.65
2022-09-07T01:51:02.871Z,89.65
2022-09-07T01:52:02.713Z,89.65
2022-09-07T01:53:02.734Z,88.54
2022-09-07T01:54:02.394Z,89.14
2022-09-07T01:55:02.210Z,88.44
2022-09-07T01:56:02.716Z,88.34
2022-09-07T01:57:03.225Z,88.54
2022-09-07T01:58:03.045Z,88.54
2022-09-07T01:59:03.148Z,88.84
2022-09-07T02:00:03.107Z,88.54
2022-09-07T02:01:03.221Z,88.95
2022-09-07T02:02:02.960Z,88.59
2022-09-07T02:03:02.926Z,88.99
2022-09-07T02:04:02.631Z,88.75
2022-09-07T02:05:02.472Z,88.09
2022-09-07T02:06:02.382Z,87.88
2022-09-07T02:07:02.914Z,87.98
2022-09-07T02:08:02.489Z,87.98
2022-09-07T02:09:02.513Z,87.98
2022-09-07T02:10:02.333Z,87.58
2022-09-07T02:11:02.829Z,87.08
2022-09-07T02:12:02.972Z,86.88
2022-09-07T02:13:03.013Z,86.58
2022-09-07T02:14:02.987Z,86.58
2022-09-07T02:15:02.847Z,86.58
2022-09-07T02:16:03.073Z,86.28
2022-09-07T02:17:02.691Z,86.28
2022-09-07T02:18:02.263Z,86.28
2022-09-07T02:19:02.081Z,86.38
2022-09-07T02:20:02.724Z,85.97
2022-09-07T02:21:02.321Z,85.88
2022-09-07T02:22:02.857Z,85.78
2022-09-07T02:23:02.421Z,86.78
2022-09-07T02:24:02.505Z,86.58
2022-09-07T02:25:02.363Z,86.28
2022-09-07T02:26:02.882Z,86.48
2022-09-07T02:27:02.671Z,86.68
2022-09-07T02:28:02.488Z,86.18
2022-09-07T02:29:02.367Z,86.58
2022-09-07T02:30:02.871Z,86.22
2022-09-07T02:31:02.697Z,86.32
2022-09-07T02:32:03.236Z,86.62
2022-09-07T02:33:02.814Z,86.32
2022-09-07T02:34:02.702Z,86.12
2022-09-07T02:35:02.974Z,86.52
2022-09-07T02:36:03.099Z,86.52
2022-09-07T02:37:02.137Z,86.62
2022-09-07T02:38:02.311Z,88.93
2022-09-07T02:39:02.172Z,88.53
2022-09-07T02:40:02.314Z,87.22
2022-09-07T02:41:02.080Z,87.73
2022-09-07T02:42:02.641Z,87.93
2022-09-07T02:43:03.234Z,88.53
2022-09-07T02:44:02.821Z,87.62
2022-09-07T02:45:02.655Z,87.82
2022-09-07T02:46:03.021Z,89.03
2022-09-07T02:47:02.920Z,88.53
2022-09-07T02:48:03.531Z,87.42
2022-09-07T02:49:03.105Z,86.72
2022-09-07T02:50:02.934Z,86.32
2022-09-07T02:51:03.479Z,86.72
2022-09-07T02:52:03.517Z,86.22
2022-09-07T02:53:03.409Z,86.22
2022-09-07T02:54:03.701Z,86.12
2022-09-07T02:55:03.463Z,87.22
2022-09-07T02:56:03.289Z,86.82
2022-09-07T02:57:02.203Z,86.32
2022-09-07T02:58:02.404Z,86.16
2022-09-07T02:59:02.270Z,86.46
2022-09-07T03:00:02.323Z,86.56
2022-09-07T03:01:02.279Z,86.36
2022-09-07T03:02:03.271Z,86.86
2022-09-07T03:03:03.116Z,88.07
2022-09-07T03:04:03.034Z,87.37
2022-09-07T03:05:02.847Z,86.46
2022-09-07T03:06:03.390Z,87.77
2022-09-07T03:07:02.292Z,86.26
2022-09-07T03:08:02.230Z,85.96
2022-09-07T03:09:02.376Z,85.75
2022-09-07T03:10:02.460Z,85.86
2022-09-07T03:11:02.275Z,85.96
2022-09-07T03:12:02.788Z,86.56
2022-09-07T03:13:03.423Z,86.26
2022-09-07T03:14:02.993Z,87.96
2022-09-07T03:15:03.105Z,87.96
2022-09-07T03:16:02.995Z,87.87
2022-09-07T03:17:02.978Z,87.16
2022-09-07T03:18:02.736Z,86.86
2022-09-07T03:19:02.854Z,88.27
2022-09-07T03:20:03.044Z,86.66
2022-09-07T03:21:03.318Z,86.46
2022-09-07T03:22:03.133Z,86.60
2022-09-07T03:23:02.964Z,89.92
2022-09-07T03:24:03.398Z,89.31
2022-09-07T03:25:03.013Z,88.81
2022-09-07T03:26:02.808Z,89.62
2022-09-07T03:27:02.412Z,91.42
2022-09-07T03:28:02.851Z,88.81
2022-09-07T03:29:02.434Z,89.22
2022-09-07T03:30:02.284Z,91.13
2022-09-07T03:31:02.726Z,89.42
2022-09-07T03:32:02.652Z,90.52
2022-09-07T03:33:02.475Z,89.42
2022-09-07T03:34:02.730Z,89.01
2022-09-07T03:35:02.866Z,90.92
2022-09-07T03:36:02.822Z,90.02
2022-09-07T03:37:03.354Z,88.81
2022-09-07T03:38:03.589Z,88.21
2022-09-07T03:39:03.470Z,87.75
2022-09-07T03:40:03.418Z,87.45
2022-09-07T03:41:03.313Z,87.24
2022-09-07T03:42:02.667Z,87.24
2022-09-07T03:43:03.042Z,87.04
2022-09-07T03:44:02.720Z,86.94
2022-09-07T03:45:02.549Z,86.74
2022-09-07T03:46:02.581Z,86.54
2022-09-07T03:47:03.526Z,86.24
2022-09-07T03:48:03.212Z,86.34
2022-09-07T03:49:03.121Z,86.24
2022-09-07T03:50:03.598Z,86.24
2022-09-07T03:51:03.468Z,86.24
2022-09-07T03:52:02.958Z,86.14
2022-09-07T03:53:03.177Z,86.34
2022-09-07T03:54:03.067Z,86.28
2022-09-07T03:55:03.236Z,86.34
2022-09-07T03:56:03.147Z,87.65
2022-09-07T03:57:03.030Z,87.39
2022-09-07T03:58:02.900Z,86.88
2022-09-07T03:59:03.004Z,86.58
2022-09-07T04:00:03.032Z,86.48
2022-09-07T04:01:03.182Z,86.48
2022-09-07T04:02:02.201Z,86.28
2022-09-07T04:03:02.010Z,86.48
2022-09-07T04:04:02.515Z,86.38
2022-09-07T04:05:01.839Z,86.28
2022-09-07T04:06:02.417Z,85.98
2022-09-07T04:07:02.635Z,85.98
2022-09-07T04:08:02.263Z,85.98
2022-09-07T04:09:02.895Z,86.08
2022-09-07T04:10:02.555Z,85.88
2022-09-07T04:11:02.702Z,86.08
2022-09-07T04:12:02.379Z,86.68
2022-09-07T04:13:02.225Z,87.39
2022-09-07T04:14:02.075Z,87.43
2022-09-07T04:15:01.925Z,87.13
2022-09-07T04:16:02.545Z,87.02
2022-09-07T04:17:02.924Z,88.74
2022-09-07T04:18:02.836Z,87.43
2022-09-07T04:19:02.664Z,87.02
2022-09-07T04:20:02.513Z,86.72
2022-09-07T04:21:03.062Z,86.72
2022-09-07T04:22:02.487Z,86.63
2022-09-07T04:23:02.339Z,86.43
2022-09-07T04:24:02.530Z,86.52
2022-09-07T04:25:02.146Z,86.63
2022-09-07T04:26:02.619Z,88.23
2022-09-07T04:27:02.810Z,89.34
2022-09-07T04:28:02.934Z,88.23
2022-09-07T04:29:02.594Z,87.43
2022-09-07T04:30:02.423Z,88.74
2022-09-07T04:31:03.056Z,88.13
2022-09-07T04:32:02.458Z,87.63
2022-09-07T04:33:01.926Z,87.33
2022-09-07T04:34:02.054Z,87.47
2022-09-07T04:35:01.989Z,87.47
2022-09-07T04:36:01.988Z,86.87
2022-09-07T04:37:02.711Z,88.18
2022-09-07T04:38:02.594Z,87.67
2022-09-07T04:39:02.483Z,87.47
2022-09-07T04:40:02.430Z,87.17
2022-09-07T04:41:02.394Z,88.78
2022-09-07T04:42:02.848Z,88.78
2022-09-07T04:43:02.757Z,88.88
2022-09-07T04:44:02.671Z,88.48
2022-09-07T04:45:02.343Z,88.98
2022-09-07T04:46:03.008Z,88.48
2022-09-07T04:47:03.474Z,88.18
2022-09-07T04:48:02.909Z,88.18
2022-09-07T04:49:03.483Z,87.87
2022-09-07T04:50:03.453Z,87.77
2022-09-07T04:51:05.788Z,87.37
2022-09-07T04:52:03.009Z,87.71
2022-09-07T04:53:02.486Z,87.37
2022-09-07T04:54:02.492Z,87.87
2022-09-07T04:55:02.530Z,88.22
2022-09-07T04:56:02.553Z,88.72
2022-09-07T04:57:03.186Z,91.74
2022-09-07T04:58:02.886Z,89.53
2022-09-07T04:59:02.853Z,88.52
2022-09-07T05:00:03.129Z,88.02
2022-09-07T05:01:02.720Z,87.92
2022-09-07T05:02:03.227Z,88.02
2022-09-07T05:03:03.341Z,88.42
2022-09-07T05:04:03.026Z,88.62
2022-09-07T05:05:03.101Z,88.52
2022-09-07T05:06:03.071Z,89.63
2022-09-07T05:07:03.603Z,89.03
2022-09-07T05:08:03.321Z,88.92
2022-09-07T05:09:03.139Z,88.32
2022-09-07T05:10:03.105Z,88.52
2022-09-07T05:11:03.115Z,88.72
2022-09-07T05:12:03.686Z,88.82
2022-09-07T05:13:03.719Z,89.67
2022-09-07T05:14:03.653Z,89.26
2022-09-07T05:15:03.675Z,89.47
2022-09-07T05:16:03.223Z,89.37
2022-09-07T05:17:03.882Z,89.47
2022-09-07T05:18:03.471Z,90.07
2022-09-07T05:19:03.495Z,90.17
2022-09-07T05:20:03.328Z,90.68
2022-09-07T05:21:03.253Z,90.07
2022-09-07T05:22:03.867Z,89.77
2022-09-07T05:23:03.329Z,91.18
2022-09-07T05:24:03.375Z,92.90
2022-09-07T05:25:03.406Z,93.40
2022-09-07T05:26:03.354Z,92.49
2022-09-07T05:27:03.420Z,91.99
2022-09-07T05:28:03.449Z,93.30
2022-09-07T05:30:05.002Z,91.89
2022-09-07T05:31:19.771Z,92.39
2022-09-07T05:32:02.831Z,91.58
2022-09-07T05:33:02.866Z,90.88
2022-09-07T05:35:02.986Z,91.38
2022-09-07T05:36:03.494Z,91.89
2022-09-07T05:37:03.836Z,92.99
2022-09-07T05:38:03.622Z,92.90
2022-09-07T05:39:03.640Z,92.69
2022-09-07T05:40:03.748Z,92.29
2022-09-07T05:41:03.589Z,92.39
2022-09-07T05:42:02.743Z,91.18
2022-09-07T05:43:02.887Z,90.68
2022-09-07T05:45:02.943Z,90.98
2022-09-07T05:46:03.001Z,90.88
2022-09-07T05:47:02.909Z,90.68
2022-09-07T05:48:03.476Z,90.17
2022-09-07T05:49:03.216Z,89.67
2022-09-07T05:50:03.349Z,89.67
2022-09-07T05:51:03.312Z,90.17
2022-09-07T05:52:03.324Z,90.17
2022-09-07T05:53:03.290Z,90.98
2022-09-07T05:54:03.779Z,92.39
2022-09-07T05:55:28.249Z,92.79
2022-09-07T05:56:06.996Z,90.78
2022-09-07T05:57:03.380Z,91.28
2022-09-07T05:58:03.171Z,93.19
2022-09-07T05:59:03.297Z,93.80
2022-09-07T06:00:03.192Z,94.20
2022-09-07T06:01:03.256Z,93.90
2022-09-07T06:02:02.589Z,91.89
2022-09-07T06:03:02.580Z,91.49
2022-09-07T06:04:02.842Z,90.78
2022-09-07T06:05:02.981Z,90.94
2022-09-07T06:06:02.695Z,91.04
2022-09-07T06:07:21.071Z,90.64
2022-09-07T06:08:02.495Z,90.33
2022-09-07T06:09:03.022Z,90.73
2022-09-07T06:11:02.771Z,91.74
2022-09-07T06:12:02.732Z,91.94
2022-09-07T06:13:02.716Z,92.14
2022-09-07T06:14:03.018Z,91.94
2022-09-07T06:15:03.072Z,92.71
2022-09-07T06:16:03.129Z,92.60
2022-09-07T06:17:03.126Z,93.01
2022-09-07T06:18:03.509Z,93.51
2022-09-07T06:19:03.475Z,93.11
2022-09-07T06:20:03.467Z,93.61
2022-09-07T06:21:03.035Z,92.76
2022-09-07T06:22:02.865Z,93.37
2022-09-07T06:23:02.815Z,93.66
2022-09-07T06:24:02.780Z,93.97
2022-09-07T06:25:02.785Z,94.02
2022-09-07T06:26:02.754Z,93.73
2022-09-07T06:27:02.624Z,93.62
2022-09-07T06:28:02.656Z,92.92
2022-09-07T06:29:02.695Z,93.38
2022-09-07T06:30:02.948Z,93.28
2022-09-07T06:31:02.361Z,93.38
2022-09-07T06:33:02.906Z,93.13
2022-09-07T06:34:03.046Z,92.83
2022-09-07T06:35:02.829Z,92.63
2022-09-07T06:36:02.960Z,93.79
2022-09-07T06:37:03.107Z,93.39
2022-09-07T06:38:03.032Z,92.89
2022-09-07T06:39:03.026Z,93.29
2022-09-07T06:40:03.112Z,93.15
2022-09-07T06:42:03.359Z,92.34
2022-09-07T06:43:03.052Z,92.14
2022-09-07T06:44:03.078Z,92.20
2022-09-07T06:45:03.613Z,92.20
2022-09-07T06:47:03.323Z,91.60
2022-09-07T06:48:03.061Z,91.35
2022-09-07T06:49:02.701Z,91.35
2022-09-07T06:50:02.858Z,91.75
2022-09-07T06:51:02.971Z,91.61
2022-09-07T06:52:02.696Z,91.01
2022-09-07T06:55:02.937Z,91.61
2022-09-07T06:56:02.945Z,91.20
2022-09-07T06:57:02.738Z,91.51
2022-09-07T06:58:02.759Z,90.86
2022-09-07T06:59:02.443Z,90.86
2022-09-07T07:00:02.942Z,90.86
2022-09-07T07:01:02.929Z,90.77
2022-09-07T07:02:02.789Z,90.16
2022-09-07T07:03:02.784Z,89.72
2022-09-07T07:04:02.834Z,90.52
2022-09-07T07:05:03.021Z,91.12
2022-09-07T07:06:02.660Z,90.32
2022-09-07T07:07:02.640Z,89.72
2022-09-07T07:08:02.343Z,89.82
2022-09-07T07:09:02.341Z,90.12
2022-09-07T07:10:02.325Z,89.92
2022-09-07T07:11:02.216Z,89.32
2022-09-07T07:12:02.972Z,89.72
2022-09-07T07:13:02.936Z,89.62
2022-09-07T07:14:03.001Z,89.48
2022-09-07T07:15:02.755Z,89.82
2022-09-07T07:16:02.835Z,90.42
2022-09-07T07:17:03.014Z,90.72
2022-09-07T07:18:19.732Z,89.92
2022-09-07T07:19:02.541Z,90.52
2022-09-07T07:20:02.602Z,90.32
2022-09-07T07:21:02.655Z,90.52
2022-09-07T07:22:14.421Z,90.32
2022-09-07T07:23:02.474Z,90.58
2022-09-07T07:24:07.500Z,90.88
2022-09-07T07:25:02.211Z,91.17
2022-09-07T07:26:02.252Z,90.88
2022-09-07T07:27:02.908Z,90.58
2022-09-07T07:29:03.843Z,90.48
2022-09-07T07:30:03.023Z,91.03
2022-09-07T07:31:07.183Z,91.03
2022-09-07T07:32:02.482Z,91.44
2022-09-07T07:33:01.972Z,91.44
2022-09-07T07:34:02.231Z,91.79
2022-09-07T07:35:02.277Z,91.09
2022-09-07T07:36:02.327Z,91.39
2022-09-07T07:37:02.765Z,90.69
2022-09-07T07:39:03.269Z,89.55
2022-09-07T07:40:20.447Z,89.85
2022-09-07T07:42:05.711Z,89.75
2022-09-07T07:43:03.288Z,89.20
2022-09-07T07:44:03.314Z,90.00
2022-09-07T07:46:05.627Z,90.30
2022-09-07T07:47:03.245Z,89.26
2022-09-07T07:48:03.041Z,89.47
2022-09-07T07:49:02.992Z,89.16
2022-09-07T07:51:09.834Z,88.42
2022-09-07T07:54:02.149Z,87.82
2022-09-07T07:55:42.515Z,89.02
2022-09-07T07:56:02.160Z,89.02
2022-09-07T07:57:02.869Z,87.88
2022-09-07T07:58:02.862Z,87.78
2022-09-07T07:59:02.652Z,87.48
2022-09-07T08:00:02.729Z,87.08
2022-09-07T08:01:02.885Z,86.08
2022-09-07T08:02:02.839Z,86.24
2022-09-07T08:03:03.056Z,86.94
2022-09-07T08:04:03.039Z,85.78
2022-09-07T08:05:03.081Z,86.19
2022-09-07T08:06:03.137Z,86.98
2022-09-07T08:07:07.005Z,86.49
2022-09-07T08:08:02.108Z,87.38
2022-09-07T08:09:02.255Z,87.28
2022-09-07T08:10:02.186Z,87.38
2022-09-07T08:11:02.400Z,87.04
2022-09-07T08:12:02.398Z,87.64
2022-09-07T08:13:02.467Z,87.04
2022-09-07T08:14:02.858Z,86.64
2022-09-07T08:15:02.923Z,87.04
2022-09-07T08:16:02.683Z,86.30
2022-09-07T08:17:02.667Z,86.40
2022-09-07T08:18:03.259Z,87.00
2022-09-07T08:19:02.812Z,86.56
2022-09-07T08:20:02.876Z,86.86
2022-09-07T08:21:03.071Z,83.67
2022-09-07T08:22:02.076Z,84.43
2022-09-07T08:23:02.138Z,84.03
2022-09-07T08:24:02.072Z,84.63
2022-09-07T08:25:02.120Z,83.33
2022-09-07T08:26:02.208Z,83.23
2022-09-07T08:27:02.133Z,83.13
2022-09-07T08:28:02.528Z,83.43
2022-09-07T08:29:02.117Z,82.73
2022-09-07T08:30:02.159Z,82.93
2022-09-07T08:31:02.921Z,83.59
2022-09-07T08:32:02.786Z,83.33
2022-09-07T08:33:02.854Z,83.43
2022-09-07T08:34:03.035Z,84.53
2022-09-07T08:35:02.961Z,83.69
2022-09-07T08:36:03.246Z,83.99
2022-09-07T08:37:02.812Z,83.89
2022-09-07T08:38:02.524Z,84.19
2022-09-07T08:39:02.430Z,84.39
2022-09-07T08:40:02.324Z,83.79
2022-09-07T08:41:02.473Z,83.79
2022-09-07T08:42:02.597Z,83.95
2022-09-07T08:43:02.601Z,83.95
2022-09-07T08:44:02.538Z,84.05
2022-09-07T08:45:02.911Z,82.76
2022-09-07T08:46:02.995Z,82.06
2022-09-07T08:47:03.081Z,81.76
2022-09-07T08:48:03.113Z,82.92
2022-09-07T08:49:03.003Z,81.92
2022-09-07T08:50:03.444Z,82.02
2022-09-07T08:51:03.413Z,83.91
2022-09-07T08:52:03.143Z,83.61
2022-09-07T08:53:03.482Z,83.07
2022-09-07T08:54:03.163Z,82.48
2022-09-07T08:55:03.217Z,82.08
2022-09-07T08:56:03.505Z,81.48
2022-09-07T08:58:02.766Z,80.79
2022-09-07T08:59:02.794Z,80.39
2022-09-07T09:00:02.743Z,80.49
2022-09-07T09:03:32.979Z,81.24
2022-09-07T09:04:19.442Z,82.64
2022-09-07T09:05:18.857Z,82.34
2022-09-07T09:06:02.862Z,82.30
2022-09-07T09:07:02.183Z,83.00
2022-09-07T09:08:02.327Z,81.60
2022-09-07T09:09:02.224Z,80.67
2022-09-07T09:10:02.236Z,80.77
2022-09-07T09:11:01.924Z,80.97
2022-09-07T09:12:02.644Z,80.47
2022-09-07T09:13:02.832Z,80.77
2022-09-07T09:14:02.814Z,80.27
2022-09-07T09:15:02.736Z,80.04
2022-09-07T09:16:02.668Z,78.45
2022-09-07T09:17:02.760Z,76.21
2022-09-07T09:18:02.851Z,76.80
2022-09-07T09:19:02.854Z,78.35
2022-09-07T09:20:02.844Z,78.75
2022-09-07T09:21:02.883Z,79.14
2022-09-07T09:22:02.898Z,77.66
2022-09-07T09:23:02.867Z,78.35
2022-09-07T09:24:02.930Z,77.95
2022-09-07T09:25:02.972Z,77.03
2022-09-07T09:26:03.009Z,77.12
2022-09-07T09:27:03.043Z,77.92
2022-09-07T09:28:02.957Z,78.22
2022-09-07T09:29:02.985Z,78.71
2022-09-07T09:30:03.090Z,78.11
2022-09-07T09:31:03.175Z,78.08
2022-09-07T09:32:02.657Z,76.79
2022-09-07T09:33:02.682Z,75.70
2022-09-07T09:34:02.507Z,75.99
2022-09-07T09:35:02.815Z,73.82
2022-09-07T09:36:02.666Z,74.91
2022-09-07T09:37:02.424Z,77.48
2022-09-07T09:38:02.394Z,75.96
2022-09-07T09:39:02.403Z,75.76
2022-09-07T09:40:02.953Z,77.55
2022-09-07T09:41:02.083Z,77.84
2022-09-07T09:42:02.534Z,76.06
2022-09-07T09:43:02.589Z,76.03
2022-09-07T09:44:02.528Z,77.01
2022-09-07T09:45:02.480Z,74.74
2022-09-07T09:46:17.946Z,72.46
2022-09-07T09:47:32.555Z,72.86
2022-09-07T09:48:02.639Z,74.14
2022-09-07T09:49:02.609Z,73.85
2022-09-07T09:50:02.759Z,73.05
2022-09-07T09:53:03.078Z,70.57
2022-09-07T09:54:02.841Z,73.55
2022-09-07T09:55:23.660Z,75.13
2022-09-07T09:56:02.882Z,71.67
2022-09-07T09:57:02.621Z,72.06
2022-09-07T09:59:55.044Z,73.71
2022-09-07T10:00:06.935Z,73.81
2022-09-07T10:04:06.373Z,73.15
2022-09-07T10:05:03.385Z,73.85
2022-09-07T10:06:03.467Z,73.94
2022-09-07T10:07:02.986Z,71.17
2022-09-07T10:08:02.974Z,72.72
2022-09-07T10:09:02.928Z,72.92
2022-09-07T10:10:02.982Z,72.82
2022-09-07T10:11:02.984Z,71.53
2022-09-07T10:12:07.608Z,71.14
2022-09-07T10:13:03.671Z,70.25
2022-09-07T10:14:03.376Z,71.14
2022-09-07T10:15:03.340Z,72.13
2022-09-07T10:16:03.445Z,72.13
2022-09-07T10:17:03.150Z,73.71
2022-09-07T10:18:02.766Z,74.30
2022-09-07T10:19:02.747Z,72.78
2022-09-07T10:20:02.752Z,72.59
2022-09-07T10:21:02.691Z,71.99
2022-09-07T10:22:03.402Z,72.49
2022-09-07T10:23:03.311Z,72.49
2022-09-07T10:24:03.251Z,70.51
2022-09-07T10:25:03.092Z,70.90
2022-09-07T10:26:02.952Z,70.97
2022-09-07T10:27:03.678Z,71.56
2022-09-07T10:28:03.701Z,71.47
2022-09-07T10:29:06.802Z,72.16
2022-09-07T10:30:06.606Z,71.66
2022-09-07T10:31:03.473Z,71.86
2022-09-07T10:32:03.271Z,71.76
2022-09-07T10:33:03.192Z,71.66
2022-09-07T10:35:03.219Z,71.66
2022-09-07T10:36:03.404Z,70.28
2022-09-07T10:37:03.615Z,69.98
2022-09-07T10:38:03.640Z,71.14
2022-09-07T10:39:03.374Z,70.84
2022-09-07T10:40:03.199Z,72.52
2022-09-07T10:41:03.746Z,71.33
2022-09-07T10:42:03.219Z,69.65
2022-09-07T10:44:02.990Z,71.39
2022-09-07T10:45:02.946Z,70.51
2022-09-07T10:46:02.821Z,71.10
2022-09-07T10:47:03.435Z,70.21
2022-09-07T10:48:03.184Z,70.11
2022-09-07T10:49:03.107Z,69.42
2022-09-07T10:51:12.469Z,69.12
2022-09-07T10:52:03.747Z,68.73
2022-09-07T10:53:13.576Z,68.24
2022-09-07T10:55:03.257Z,68.33
2022-09-07T10:56:03.689Z,68.83
2022-09-07T10:57:04.035Z,69.12
2022-09-07T10:58:04.064Z,69.02
2022-09-07T10:59:04.225Z,68.43
2022-09-07T11:00:10.930Z,67.08
2022-09-07T11:01:03.485Z,67.97
2022-09-07T11:02:03.108Z,68.76
2022-09-07T11:04:03.272Z,69.65
2022-09-07T11:05:03.314Z,68.79
2022-09-07T11:06:03.332Z,68.90
2022-09-07T11:07:03.710Z,69.19
2022-09-07T11:08:03.103Z,69.78
2022-09-07T11:09:19.438Z,70.48
2022-09-07T11:10:03.004Z,70.38
2022-09-07T11:11:02.808Z,69.29
2022-09-07T11:12:04.224Z,69.49
2022-09-07T11:13:02.719Z,69.39
2022-09-07T11:14:12.948Z,68.04
2022-09-07T11:15:02.672Z,66.46
2022-09-07T11:16:02.746Z,67.84
2022-09-07T11:17:02.954Z,69.12
2022-09-07T11:18:02.992Z,68.43
2022-09-07T11:20:03.442Z,69.06
2022-09-07T11:21:02.787Z,69.35
2022-09-07T11:22:02.812Z,69.75
2022-09-07T11:23:03.409Z,70.34
2022-09-07T11:24:03.369Z,70.94
2022-09-07T11:26:03.800Z,71.23
2022-09-07T11:27:03.435Z,71.30
2022-09-07T11:28:03.173Z,70.90
2022-09-07T11:30:03.093Z,71.73
2022-09-07T11:31:03.164Z,71.50
2022-09-07T11:32:03.168Z,69.62
2022-09-07T11:33:04.048Z,69.85
2022-09-07T11:35:03.647Z,71.83
2022-09-07T11:36:03.646Z,72.33
2022-09-07T11:37:03.902Z,71.80
2022-09-07T11:38:03.774Z,72.29
2022-09-07T11:39:03.761Z,71.30
2022-09-07T11:40:03.879Z,69.72
2022-09-07T11:41:03.917Z,68.33
2022-09-07T11:42:42.665Z,68.20
2022-09-07T11:43:02.929Z,67.32
2022-09-07T11:44:03.053Z,67.91
2022-09-07T11:45:03.121Z,70.28
2022-09-07T11:46:03.174Z,68.86
2022-09-07T11:47:02.874Z,67.68
2022-09-07T11:48:03.219Z,68.66
2022-09-07T11:49:04.574Z,69.12
2022-09-07T11:50:03.199Z,67.05
2022-09-07T11:51:03.201Z,69.98
2022-09-07T11:52:06.322Z,68.79
2022-09-07T11:53:03.886Z,66.03
2022-09-07T11:54:03.636Z,65.05
2022-09-07T11:55:03.723Z,65.31
2022-09-07T11:56:03.877Z,65.61
2022-09-07T11:57:03.664Z,66.59
2022-09-07T11:58:03.827Z,66.66
2022-09-07T11:59:03.876Z,67.35
2022-09-07T12:00:03.485Z,63.50
2022-09-07T12:01:03.649Z,65.77
2022-09-07T12:02:03.827Z,65.15
2022-09-07T12:03:02.893Z,64.26
2022-09-07T12:04:03.031Z,64.95
2022-09-07T12:05:02.965Z,64.56
2022-09-07T12:06:02.708Z,63.28
2022-09-07T12:07:02.582Z,64.53
2022-09-07T12:08:03.477Z,64.72
2022-09-07T12:09:03.237Z,62.75
2022-09-07T12:10:03.280Z,62.26
2022-09-07T12:11:03.306Z,63.84
2022-09-07T12:12:03.175Z,64.89
2022-09-07T12:13:02.346Z,63.31
2022-09-07T12:14:02.422Z,63.41
2022-09-07T12:15:02.457Z,63.09
2022-09-07T12:16:03.119Z,61.31
2022-09-07T12:17:02.851Z,63.87
2022-09-07T12:18:03.562Z,63.18
2022-09-07T12:19:03.189Z,61.71
2022-09-07T12:20:03.179Z,63.38
2022-09-07T12:21:03.139Z,60.82
2022-09-07T12:22:03.048Z,62.00
2022-09-07T12:23:05.145Z,63.57
2022-09-07T12:24:03.580Z,62.20
2022-09-07T12:25:03.814Z,62.30
2022-09-07T12:26:03.533Z,61.61
2022-09-07T12:27:03.481Z,62.52
2022-09-07T12:28:03.136Z,62.62
2022-09-07T12:29:02.978Z,60.65
2022-09-07T12:30:03.005Z,59.86
2022-09-07T12:31:02.805Z,61.74
2022-09-07T12:33:03.311Z,64.89
2022-09-07T12:34:03.237Z,63.60
2022-09-07T12:35:03.304Z,62.69
2022-09-07T12:36:03.355Z,63.78
2022-09-07T12:37:03.431Z,63.87
2022-09-07T12:38:04.087Z,61.68
2022-09-07T12:39:03.698Z,60.89
2022-09-07T12:40:04.001Z,59.12
2022-09-07T12:41:03.833Z,59.02
2022-09-07T12:43:09.648Z,61.48
2022-09-07T12:44:03.287Z,59.41
2022-09-07T12:45:03.086Z,59.51
2022-09-07T12:46:03.221Z,57.74
2022-09-07T12:47:03.165Z,58.14
2022-09-07T12:48:04.609Z,58.80
2022-09-07T12:49:03.177Z,61.25
2022-09-07T12:50:03.299Z,62.30
2022-09-07T12:51:03.244Z,62.27
2022-09-07T12:52:14.894Z,60.80
2022-09-07T12:53:03.604Z,59.52
2022-09-07T12:54:03.971Z,60.31
2022-09-07T12:55:26.474Z,61.26
2022-09-07T12:56:19.171Z,60.38
2022-09-07T12:58:03.315Z,59.17
2022-09-07T12:59:03.358Z,58.00
2022-09-07T13:00:03.278Z,57.31
2022-09-07T13:01:05.576Z,55.44
2022-09-07T13:02:02.938Z,57.90
2022-09-07T13:03:03.902Z,58.68
2022-09-07T13:04:02.581Z,57.40
2022-09-07T13:05:02.656Z,56.42
2022-09-07T13:06:02.808Z,54.66
2022-09-07T13:07:03.309Z,53.87
2022-09-07T13:08:08.725Z,55.66
2022-09-07T13:09:02.754Z,56.16
2022-09-07T13:10:02.897Z,55.57
2022-09-07T13:11:02.808Z,54.61
2022-09-07T13:12:03.194Z,55.79
2022-09-07T13:13:02.374Z,56.58
2022-09-07T13:14:04.502Z,58.34
2022-09-07T13:15:02.379Z,57.17
2022-09-07T13:16:03.728Z,57.92
2022-09-07T13:17:18.255Z,56.94
2022-09-07T13:18:02.715Z,58.12
2022-09-07T13:19:02.784Z,58.00
2022-09-07T13:20:02.799Z,58.97
2022-09-07T13:21:02.602Z,57.31
2022-09-07T13:22:02.577Z,57.48
2022-09-07T13:23:03.661Z,56.40
2022-09-07T13:24:45.571Z,53.67
2022-09-07T13:25:03.651Z,54.85
2022-09-07T13:26:03.721Z,56.72
2022-09-07T13:27:03.769Z,56.52
2022-09-07T13:28:02.479Z,55.83
2022-09-07T13:29:02.490Z,57.01